createdAt,value
2023-01-09T00:00:01.880Z,85.53
2023-01-09T00:01:13.729Z,85.46
2023-01-09T00:02:15.993Z,85.76
2023-01-09T00:03:19.456Z,85.71
2023-01-09T00:04:22.729Z,85.81
2023-01-09T00:05:25.120Z,85.61
2023-01-09T00:06:28.815Z,85.86
2023-01-09T00:07:30.864Z,85.60
2023-01-09T00:08:34.054Z,85.69
2023-01-09T00:09:36.207Z,85.96
2023-01-09T00:10:40.679Z,85.70
2023-01-09T00:11:42.852Z,85.86
2023-01-09T00:12:45.930Z,85.94
2023-01-09T00:13:48.169Z,85.77
2023-01-09T00:14:51.268Z,86.04
2023-01-09T00:15:53.411Z,86.08
2023-01-09T00:16:56.631Z,85.96
2023-01-09T00:17:58.767Z,86.06
2023-01-09T00:19:01.949Z,86.19
2023-01-09T00:20:04.685Z,86.50
2023-01-09T00:21:11.195Z,86.27
2023-01-09T00:22:13.210Z,86.44
2023-01-09T00:23:16.866Z,86.65
2023-01-09T00:24:18.989Z,86.64
2023-01-09T00:25:22.787Z,86.50
2023-01-09T00:26:26.288Z,86.55
2023-01-09T00:27:31.884Z,86.60
2023-01-09T00:28:34.445Z,86.47
2023-01-09T00:29:37.496Z,86.26
2023-01-09T00:30:40.935Z,86.52
2023-01-09T00:31:44.052Z,86.39
2023-01-09T00:32:46.318Z,86.43
2023-01-09T00:33:56.136Z,86.31
2023-01-09T00:34:58.278Z,86.53
2023-01-09T00:36:01.465Z,86.70
2023-01-09T00:37:03.960Z,86.62
2023-01-09T00:38:07.189Z,86.47
2023-01-09T00:39:09.352Z,86.78
2023-01-09T00:40:14.938Z,86.51
2023-01-09T00:41:21.267Z,86.62
2023-01-09T00:42:31.295Z,86.76
2023-01-09T00:43:38.283Z,86.69
2023-01-09T00:44:47.862Z,86.82
2023-01-09T00:45:50.423Z,86.70
2023-01-09T00:46:58.861Z,86.60
2023-01-09T00:48:07.210Z,86.70
2023-01-09T00:49:11.422Z,86.73
2023-01-09T00:50:16.880Z,86.55
2023-01-09T00:51:21.062Z,86.73
2023-01-09T00:52:23.242Z,86.46
2023-01-09T00:53:30.417Z,86.54
2023-01-09T00:54:32.917Z,86.65
2023-01-09T00:55:38.038Z,86.50
2023-01-09T00:56:40.242Z,86.41
2023-01-09T00:57:45.004Z,86.52
2023-01-09T00:58:48.173Z,86.63
2023-01-09T00:59:51.361Z,86.54
2023-01-09T01:00:53.489Z,86.55
2023-01-09T01:01:56.731Z,86.52
2023-01-09T01:02:59.951Z,86.70
2023-01-09T01:04:22.525Z,86.75
2023-01-09T01:05:43.068Z,86.47
2023-01-09T01:07:03.574Z,86.74
2023-01-09T01:08:11.986Z,86.61
2023-01-09T01:09:14.021Z,86.67
2023-01-09T01:10:20.272Z,86.79
2023-01-09T01:11:22.695Z,86.78
2023-01-09T01:12:26.111Z,86.57
2023-01-09T01:13:29.547Z,86.73
2023-01-09T01:14:32.632Z,86.42
2023-01-09T01:15:35.031Z,86.39
2023-01-09T01:16:38.216Z,86.47
2023-01-09T01:17:41.305Z,86.42
2023-01-09T01:18:44.350Z,86.05
2023-01-09T01:19:46.573Z,85.89
2023-01-09T01:20:49.783Z,85.65
2023-01-09T01:21:52.263Z,85.71
2023-01-09T01:22:55.325Z,85.69
2023-01-09T01:23:57.364Z,85.68
2023-01-09T01:25:00.546Z,85.61
2023-01-09T01:26:06.274Z,85.42
2023-01-09T01:27:09.368Z,85.42
2023-01-09T01:28:11.409Z,85.50
2023-01-09T01:29:15.970Z,85.48
2023-01-09T01:30:19.882Z,85.52
2023-01-09T01:31:21.928Z,85.55
2023-01-09T01:32:25.034Z,85.43
2023-01-09T01:33:27.222Z,85.60
2023-01-09T01:34:30.698Z,85.52
2023-01-09T01:35:32.913Z,85.70
2023-01-09T01:36:36.121Z,85.55
2023-01-09T01:37:39.799Z,85.43
2023-01-09T01:38:42.040Z,85.60
2023-01-09T01:39:45.147Z,85.28
2023-01-09T01:40:52.926Z,85.47
2023-01-09T01:41:56.034Z,85.31
2023-01-09T01:42:58.749Z,85.23
2023-01-09T01:44:04.239Z,85.51
2023-01-09T01:45:13.444Z,85.42
2023-01-09T01:46:17.736Z,85.47
2023-01-09T01:47:23.624Z,85.36
2023-01-09T01:48:30.004Z,85.43
2023-01-09T01:49:32.088Z,85.49
2023-01-09T01:50:40.968Z,85.67
2023-01-09T01:51:46.997Z,85.63
2023-01-09T01:52:55.586Z,85.57
2023-01-09T01:54:02.976Z,85.46
2023-01-09T01:55:10.125Z,85.36
2023-01-09T01:56:17.889Z,85.48
2023-01-09T01:57:21.387Z,85.55
2023-01-09T01:58:24.614Z,85.55
2023-01-09T01:59:29.189Z,85.49
2023-01-09T02:00:37.547Z,85.57
2023-01-09T02:01:42.827Z,85.67
2023-01-09T02:02:47.198Z,85.64
2023-01-09T02:03:53.064Z,85.75
2023-01-09T02:04:57.881Z,85.78
2023-01-09T02:06:00.071Z,85.50
2023-01-09T02:07:06.401Z,85.50
2023-01-09T02:08:10.252Z,85.58
2023-01-09T02:09:15.262Z,85.60
2023-01-09T02:10:19.024Z,85.57
2023-01-09T02:11:21.854Z,85.61
2023-01-09T02:12:27.027Z,85.67
2023-01-09T02:13:29.916Z,85.58
2023-01-09T02:14:34.893Z,85.50
2023-01-09T02:15:53.419Z,85.64
2023-01-09T02:17:06.313Z,85.55
2023-01-09T02:18:30.846Z,85.65
2023-01-09T02:20:01.347Z,85.57
2023-01-09T02:21:10.732Z,85.76
2023-01-09T02:22:20.494Z,85.78
2023-01-09T02:24:00.732Z,85.93
2023-01-09T02:25:31.212Z,85.93
2023-01-09T02:26:57.886Z,85.97
2023-01-09T02:28:45.704Z,85.83
2023-01-09T02:30:20.035Z,85.94
2023-01-09T02:31:29.106Z,85.91
2023-01-09T02:32:44.680Z,85.83
2023-01-09T02:33:56.081Z,85.86
2023-01-09T02:35:10.731Z,85.74
2023-01-09T02:36:20.808Z,85.76
2023-01-09T02:37:36.209Z,85.69
2023-01-09T02:38:49.342Z,85.69
2023-01-09T02:40:00.564Z,85.67
2023-01-09T02:41:09.031Z,85.69
2023-01-09T02:42:17.225Z,85.42
2023-01-09T02:43:21.288Z,85.46
2023-01-09T02:44:25.104Z,85.66
2023-01-09T02:45:29.686Z,85.57
2023-01-09T02:46:31.826Z,85.39
2023-01-09T02:47:40.833Z,85.43
2023-01-09T02:48:46.364Z,85.55
2023-01-09T02:49:52.503Z,85.35
2023-01-09T02:51:07.994Z,85.19
2023-01-09T02:52:26.132Z,85.33
2023-01-09T02:53:45.162Z,85.17
2023-01-09T02:54:58.374Z,85.14
2023-01-09T02:56:16.652Z,85.11
2023-01-09T02:57:36.445Z,85.19
2023-01-09T02:59:00.754Z,84.59
2023-01-09T03:00:12.129Z,84.61
2023-01-09T03:01:28.544Z,84.58
2023-01-09T03:02:42.646Z,84.35
2023-01-09T03:03:51.548Z,84.33
2023-01-09T03:05:06.039Z,84.60
2023-01-09T03:06:16.242Z,84.47
2023-01-09T03:07:25.636Z,84.33
2023-01-09T03:08:36.221Z,84.12
2023-01-09T03:09:41.313Z,84.09
2023-01-09T03:10:52.810Z,84.23
2023-01-09T03:12:01.260Z,83.93
2023-01-09T03:13:04.533Z,83.89
2023-01-09T03:14:12.670Z,84.03
2023-01-09T03:15:17.021Z,83.96
2023-01-09T03:16:26.362Z,83.96
2023-01-09T03:17:32.315Z,83.79
2023-01-09T03:18:38.239Z,83.91
2023-01-09T03:19:42.617Z,83.67
2023-01-09T03:20:45.906Z,83.68
2023-01-09T03:21:48.214Z,83.53
2023-01-09T03:22:56.219Z,83.44
2023-01-09T03:24:00.072Z,83.32
2023-01-09T03:25:03.245Z,83.47
2023-01-09T03:26:06.510Z,83.49
2023-01-09T03:27:10.660Z,83.56
2023-01-09T03:28:25.495Z,83.32
2023-01-09T03:29:29.619Z,83.47
2023-01-09T03:30:34.222Z,83.45
2023-01-09T03:31:38.737Z,83.16
2023-01-09T03:32:40.925Z,83.22
2023-01-09T03:33:44.807Z,83.26
2023-01-09T03:34:46.885Z,83.45
2023-01-09T03:35:49.940Z,83.27
2023-01-09T03:36:52.061Z,83.12
2023-01-09T03:37:55.260Z,83.40
2023-01-09T03:38:57.328Z,83.15
2023-01-09T03:40:00.423Z,83.28
2023-01-09T03:41:03.881Z,83.17
2023-01-09T03:42:07.123Z,83.28
2023-01-09T03:43:09.234Z,83.35
2023-01-09T03:44:12.360Z,83.16
2023-01-09T03:45:14.550Z,83.22
2023-01-09T03:46:17.988Z,83.27
2023-01-09T03:47:21.422Z,83.29
2023-01-09T03:48:24.492Z,83.22
2023-01-09T03:49:26.519Z,83.45
2023-01-09T03:50:29.585Z,83.37
2023-01-09T03:51:31.663Z,83.40
2023-01-09T03:52:35.996Z,83.23
2023-01-09T03:53:38.127Z,83.42
2023-01-09T03:54:41.230Z,83.25
2023-01-09T03:55:45.572Z,83.46
2023-01-09T03:56:48.655Z,83.19
2023-01-09T03:57:52.689Z,83.30
2023-01-09T03:58:55.734Z,83.19
2023-01-09T03:59:57.844Z,83.27
2023-01-09T04:01:03.069Z,83.19
2023-01-09T04:02:05.390Z,83.17
2023-01-09T04:03:10.615Z,83.14
2023-01-09T04:04:12.726Z,83.40
2023-01-09T04:05:16.091Z,83.07
2023-01-09T04:06:18.194Z,83.30
2023-01-09T04:07:21.251Z,83.19
2023-01-09T04:08:23.361Z,83.41
2023-01-09T04:09:26.446Z,83.26
2023-01-09T04:10:28.525Z,83.38
2023-01-09T04:11:31.631Z,83.47
2023-01-09T04:12:33.723Z,83.41
2023-01-09T04:13:36.836Z,83.49
2023-01-09T04:14:38.899Z,83.47
2023-01-09T04:15:41.986Z,83.65
2023-01-09T04:16:44.098Z,83.53
2023-01-09T04:17:47.368Z,83.49
2023-01-09T04:18:50.848Z,83.68
2023-01-09T04:19:53.950Z,83.47
2023-01-09T04:20:56.061Z,83.53
2023-01-09T04:21:59.161Z,83.58
2023-01-09T04:23:01.261Z,83.60
2023-01-09T04:24:04.519Z,83.60
2023-01-09T04:25:07.395Z,83.51
2023-01-09T04:26:10.503Z,83.80
2023-01-09T04:27:12.980Z,83.63
2023-01-09T04:28:16.038Z,83.75
2023-01-09T04:29:18.106Z,83.56
2023-01-09T04:30:21.428Z,83.92
2023-01-09T04:31:23.613Z,83.72
2023-01-09T04:32:27.675Z,83.89
2023-01-09T04:33:29.880Z,84.00
2023-01-09T04:34:34.383Z,84.12
2023-01-09T04:35:36.479Z,84.12
2023-01-09T04:36:40.166Z,84.25
2023-01-09T04:37:42.222Z,84.39
2023-01-09T04:38:45.286Z,84.32
2023-01-09T04:39:47.679Z,84.34
2023-01-09T04:40:51.157Z,84.14
2023-01-09T04:41:53.179Z,84.30
2023-01-09T04:42:56.256Z,84.32
2023-01-09T04:43:58.356Z,84.31
2023-01-09T04:45:01.382Z,84.45
2023-01-09T04:46:03.662Z,84.28
2023-01-09T04:47:07.231Z,84.50
2023-01-09T04:48:09.373Z,84.36
2023-01-09T04:49:12.531Z,84.34
2023-01-09T04:50:16.391Z,84.24
2023-01-09T04:51:19.594Z,84.27
2023-01-09T04:52:21.635Z,84.42
2023-01-09T04:53:24.673Z,84.54
2023-01-09T04:54:27.723Z,84.38
2023-01-09T04:55:30.884Z,84.63
2023-01-09T04:56:33.182Z,84.54
2023-01-09T04:57:36.440Z,84.45
2023-01-09T04:58:38.620Z,84.41
2023-01-09T04:59:41.756Z,84.42
2023-01-09T05:00:43.804Z,84.40
2023-01-09T05:01:47.180Z,84.29
2023-01-09T05:02:49.303Z,84.50
2023-01-09T05:03:52.432Z,84.45
2023-01-09T05:04:54.551Z,84.65
2023-01-09T05:05:59.010Z,84.60
2023-01-09T05:07:01.080Z,84.73
2023-01-09T05:08:05.946Z,84.60
2023-01-09T05:09:08.040Z,84.74
2023-01-09T05:10:12.560Z,84.73
2023-01-09T05:11:14.667Z,84.78
2023-01-09T05:12:17.693Z,84.87
2023-01-09T05:13:20.804Z,84.69
2023-01-09T05:14:22.896Z,84.59
2023-01-09T05:15:28.248Z,84.80
2023-01-09T05:16:31.363Z,84.93
2023-01-09T05:17:34.441Z,84.93
2023-01-09T05:18:36.726Z,84.78
2023-01-09T05:19:40.220Z,84.63
2023-01-09T05:20:42.434Z,84.75
2023-01-09T05:21:46.887Z,84.86
2023-01-09T05:22:50.088Z,84.85
2023-01-09T05:23:52.166Z,85.03
2023-01-09T05:24:55.233Z,84.91
2023-01-09T05:25:57.330Z,84.85
2023-01-09T05:27:02.642Z,84.72
2023-01-09T05:28:05.019Z,84.98
2023-01-09T05:29:08.084Z,84.82
2023-01-09T05:30:13.523Z,84.58
2023-01-09T05:31:16.861Z,84.47
2023-01-09T05:32:18.919Z,84.23
2023-01-09T05:33:21.997Z,84.06
2023-01-09T05:34:25.287Z,84.41
2023-01-09T05:35:27.344Z,84.37
2023-01-09T05:36:30.565Z,84.51
2023-01-09T05:37:34.025Z,84.19
2023-01-09T05:38:37.384Z,84.29
2023-01-09T05:39:39.469Z,84.45
2023-01-09T05:40:42.547Z,84.46
2023-01-09T05:41:44.640Z,84.31
2023-01-09T05:42:47.744Z,84.38
2023-01-09T05:43:49.814Z,84.38
2023-01-09T05:44:52.886Z,84.49
2023-01-09T05:45:54.936Z,84.32
2023-01-09T05:46:57.963Z,84.42
2023-01-09T05:48:00.122Z,84.37
2023-01-09T05:49:03.283Z,84.60
2023-01-09T05:50:05.962Z,84.60
2023-01-09T05:51:09.177Z,84.59
2023-01-09T05:52:11.254Z,84.54
2023-01-09T05:53:15.719Z,84.65
2023-01-09T05:54:17.837Z,84.77
2023-01-09T05:55:20.984Z,84.73
2023-01-09T05:56:24.033Z,84.85
2023-01-09T05:57:26.263Z,84.71
2023-01-09T05:58:29.340Z,84.88
2023-01-09T05:59:32.417Z,85.08
2023-01-09T06:00:34.484Z,84.67
2023-01-09T06:01:37.596Z,84.99
2023-01-09T06:02:39.904Z,85.01
2023-01-09T06:03:43.263Z,84.84
2023-01-09T06:04:46.371Z,85.15
2023-01-09T06:05:48.477Z,85.17
2023-01-09T06:06:51.553Z,85.20
2023-01-09T06:07:53.663Z,85.25
2023-01-09T06:08:58.113Z,85.27
2023-01-09T06:10:00.338Z,85.46
2023-01-09T06:11:03.369Z,85.48
2023-01-09T06:12:06.784Z,85.40
2023-01-09T06:13:09.051Z,85.37
2023-01-09T06:14:12.087Z,85.45
2023-01-09T06:15:15.442Z,85.35
2023-01-09T06:16:18.538Z,85.40
2023-01-09T06:17:20.624Z,85.59
2023-01-09T06:18:23.775Z,85.63
2023-01-09T06:19:25.911Z,85.55
2023-01-09T06:20:28.951Z,85.57
2023-01-09T06:21:30.988Z,85.80
2023-01-09T06:22:34.094Z,85.73
2023-01-09T06:23:37.135Z,85.64
2023-01-09T06:24:40.544Z,85.72
2023-01-09T06:25:43.863Z,85.86
2023-01-09T06:26:45.984Z,85.91
2023-01-09T06:27:49.778Z,85.78
2023-01-09T06:28:51.909Z,85.83
2023-01-09T06:29:54.936Z,86.07
2023-01-09T06:30:57.123Z,86.06
2023-01-09T06:32:00.207Z,86.22
2023-01-09T06:33:02.312Z,86.13
2023-01-09T06:34:05.441Z,86.09
2023-01-09T06:35:08.044Z,86.19
2023-01-09T06:36:11.240Z,86.13
2023-01-09T06:37:13.343Z,86.10
2023-01-09T06:38:16.463Z,86.19
2023-01-09T06:39:18.653Z,86.27
2023-01-09T06:40:23.073Z,86.14
2023-01-09T06:41:25.264Z,86.31
2023-01-09T06:42:28.347Z,86.12
2023-01-09T06:43:30.421Z,86.16
2023-01-09T06:44:36.537Z,86.15
2023-01-09T06:45:39.040Z,86.34
2023-01-09T06:46:42.108Z,86.44
2023-01-09T06:47:44.483Z,86.32
2023-01-09T06:48:47.589Z,86.36
2023-01-09T06:49:49.655Z,86.39
2023-01-09T06:50:52.967Z,86.54
2023-01-09T06:51:55.206Z,86.42
2023-01-09T06:52:58.375Z,86.56
2023-01-09T06:54:00.434Z,86.48
2023-01-09T06:55:03.563Z,86.45
2023-01-09T06:56:07.283Z,86.52
2023-01-09T06:57:10.439Z,86.51
2023-01-09T06:58:12.980Z,86.47
2023-01-09T06:59:16.069Z,86.64
2023-01-09T07:00:20.255Z,86.73
2023-01-09T07:01:23.554Z,86.57
2023-01-09T07:02:25.707Z,86.82
2023-01-09T07:03:28.833Z,86.65
2023-01-09T07:04:30.912Z,86.74
2023-01-09T07:05:39.710Z,86.80
2023-01-09T07:06:42.814Z,86.83
2023-01-09T07:07:44.856Z,86.54
2023-01-09T07:08:48.066Z,86.64
2023-01-09T07:09:50.302Z,86.65
2023-01-09T07:10:53.455Z,86.83
2023-01-09T07:11:56.895Z,86.65
2023-01-09T07:12:59.978Z,86.76
2023-01-09T07:14:02.029Z,86.64
2023-01-09T07:15:05.791Z,86.73
2023-01-09T07:16:09.557Z,86.77
2023-01-09T07:17:12.479Z,86.98
2023-01-09T07:18:15.529Z,86.84
2023-01-09T07:19:17.578Z,86.95
2023-01-09T07:20:21.226Z,86.88
2023-01-09T07:21:23.463Z,87.28
2023-01-09T07:22:26.617Z,87.01
2023-01-09T07:23:28.755Z,87.01
2023-01-09T07:24:31.806Z,87.15
2023-01-09T07:25:34.875Z,87.11
2023-01-09T07:26:37.031Z,87.26
2023-01-09T07:27:42.291Z,87.31
2023-01-09T07:28:44.319Z,87.06
2023-01-09T07:29:47.437Z,87.28
2023-01-09T07:30:50.537Z,87.11
2023-01-09T07:31:53.657Z,87.03
2023-01-09T07:32:56.756Z,87.07
2023-01-09T07:33:58.759Z,87.25
2023-01-09T07:35:01.880Z,87.09
2023-01-09T07:36:04.272Z,87.06
2023-01-09T07:37:07.356Z,87.18
2023-01-09T07:38:10.551Z,87.37
2023-01-09T07:39:12.837Z,87.22
2023-01-09T07:40:15.978Z,87.30
2023-01-09T07:41:18.102Z,87.49
2023-01-09T07:42:21.363Z,87.55
2023-01-09T07:43:24.831Z,87.35
2023-01-09T07:44:27.975Z,87.61
2023-01-09T07:45:31.050Z,87.72
2023-01-09T07:46:33.239Z,87.62
2023-01-09T07:47:36.330Z,87.65
2023-01-09T07:48:39.514Z,87.73
2023-01-09T07:49:42.624Z,87.93
2023-01-09T07:50:45.738Z,87.71
2023-01-09T07:51:48.346Z,87.97
2023-01-09T07:52:51.429Z,87.77
2023-01-09T07:53:53.535Z,88.02
2023-01-09T07:54:56.625Z,87.88
2023-01-09T07:55:59.723Z,88.12
2023-01-09T07:57:02.803Z,88.23
2023-01-09T07:58:04.900Z,88.13
2023-01-09T07:59:09.584Z,88.01
2023-01-09T08:00:13.747Z,88.08
2023-01-09T08:01:17.286Z,88.08
2023-01-09T08:02:20.595Z,87.96
2023-01-09T08:03:22.739Z,88.03
2023-01-09T08:04:25.990Z,87.91
2023-01-09T08:05:28.138Z,87.95
2023-01-09T08:06:31.509Z,88.13
2023-01-09T08:07:33.609Z,88.09
2023-01-09T08:08:36.729Z,87.96
2023-01-09T08:09:40.024Z,87.94
2023-01-09T08:10:43.700Z,87.75
2023-01-09T08:11:46.871Z,87.86
2023-01-09T08:12:49.536Z,87.78
2023-01-09T08:13:52.998Z,87.77
2023-01-09T08:14:56.434Z,87.87
2023-01-09T08:15:59.547Z,87.74
2023-01-09T08:17:02.749Z,87.69
2023-01-09T08:18:05.852Z,87.85
2023-01-09T08:19:12.021Z,87.80
2023-01-09T08:20:16.935Z,87.86
2023-01-09T08:21:19.976Z,87.76
2023-01-09T08:22:22.069Z,87.84
2023-01-09T08:23:25.154Z,87.78
2023-01-09T08:24:28.206Z,87.72
2023-01-09T08:25:31.271Z,87.84
2023-01-09T08:26:34.591Z,87.85
2023-01-09T08:27:36.688Z,87.78
2023-01-09T08:28:39.825Z,87.76
2023-01-09T08:29:41.885Z,87.73
2023-01-09T08:30:47.676Z,87.60
2023-01-09T08:31:50.772Z,87.60
2023-01-09T08:32:54.302Z,87.45
2023-01-09T08:33:57.409Z,87.49
2023-01-09T08:34:59.544Z,87.27
2023-01-09T08:36:02.726Z,87.38
2023-01-09T08:37:05.835Z,87.52
2023-01-09T08:38:07.883Z,86.89
2023-01-09T08:39:11.222Z,87.08
2023-01-09T08:40:14.797Z,86.83
2023-01-09T08:41:35.290Z,86.88
2023-01-09T08:42:56.058Z,87.12
2023-01-09T08:44:16.320Z,87.06
2023-01-09T08:45:36.836Z,86.89
2023-01-09T08:46:59.193Z,86.73
2023-01-09T08:48:02.305Z,87.10
2023-01-09T08:49:05.369Z,86.91
2023-01-09T08:50:09.299Z,87.06
2023-01-09T08:51:12.403Z,86.91
2023-01-09T08:52:14.503Z,86.91
2023-01-09T08:53:17.603Z,87.04
2023-01-09T08:54:20.719Z,86.96
2023-01-09T08:55:24.208Z,87.01
2023-01-09T08:56:27.328Z,86.95
2023-01-09T08:57:30.490Z,86.98
2023-01-09T08:58:34.808Z,86.90
2023-01-09T08:59:36.999Z,86.92
2023-01-09T09:00:40.070Z,87.10
2023-01-09T09:01:48.868Z,87.01
2023-01-09T09:02:53.776Z,87.02
2023-01-09T09:03:56.900Z,86.84
2023-01-09T09:04:59.964Z,86.81
2023-01-09T09:06:02.714Z,87.13
2023-01-09T09:07:06.168Z,86.90
2023-01-09T09:08:08.269Z,86.96
2023-01-09T09:09:12.346Z,87.03
2023-01-09T09:10:15.496Z,86.85
2023-01-09T09:11:17.590Z,86.95
2023-01-09T09:12:21.206Z,86.99
2023-01-09T09:13:24.351Z,86.96
2023-01-09T09:14:44.657Z,86.84
2023-01-09T09:15:47.815Z,86.81
2023-01-09T09:16:51.771Z,86.94
2023-01-09T09:17:56.571Z,86.89
2023-01-09T09:18:59.693Z,86.91
2023-01-09T09:20:01.755Z,86.85
2023-01-09T09:21:04.990Z,86.94
2023-01-09T09:22:07.051Z,86.76
2023-01-09T09:23:10.155Z,86.74
2023-01-09T09:24:13.236Z,86.84
2023-01-09T09:25:17.726Z,86.70
2023-01-09T09:26:19.848Z,86.85
2023-01-09T09:27:22.926Z,86.92
2023-01-09T09:28:25.975Z,86.96
2023-01-09T09:29:29.075Z,87.12
2023-01-09T09:30:32.241Z,86.93
2023-01-09T09:31:37.232Z,86.94
2023-01-09T09:32:42.407Z,87.13
2023-01-09T09:33:45.451Z,86.93
2023-01-09T09:34:47.557Z,86.93
2023-01-09T09:35:50.747Z,87.08
2023-01-09T09:36:53.497Z,86.88
2023-01-09T09:37:58.155Z,87.03
2023-01-09T09:39:00.300Z,86.78
2023-01-09T09:40:13.276Z,86.71
2023-01-09T09:41:54.133Z,86.73
2023-01-09T09:43:38.843Z,86.76
2023-01-09T09:45:01.716Z,86.30
2023-01-09T09:46:16.161Z,85.66
2023-01-09T09:47:33.597Z,85.97
2023-01-09T09:48:40.542Z,85.92
2023-01-09T09:49:53.236Z,85.88
2023-01-09T09:51:18.694Z,85.82
2023-01-09T09:52:31.997Z,85.75
2023-01-09T09:53:38.830Z,85.71
2023-01-09T09:54:46.733Z,85.74
2023-01-09T09:55:51.581Z,85.33
2023-01-09T09:56:58.831Z,85.52
2023-01-09T09:58:06.475Z,85.42
2023-01-09T09:59:16.085Z,85.32
2023-01-09T10:00:23.037Z,85.32
2023-01-09T10:01:31.233Z,85.17
2023-01-09T10:02:45.980Z,84.70
2023-01-09T10:03:53.154Z,84.00
2023-01-09T10:05:00.939Z,84.18
2023-01-09T10:06:08.739Z,83.86
2023-01-09T10:07:21.393Z,84.06
2023-01-09T10:08:35.466Z,83.54
2023-01-09T10:09:49.520Z,82.91
2023-01-09T10:10:54.199Z,83.17
2023-01-09T10:12:03.956Z,83.37
2023-01-09T10:13:23.777Z,83.24
2023-01-09T10:14:27.126Z,82.60
2023-01-09T10:15:38.563Z,82.88
2023-01-09T10:17:07.281Z,82.98
2023-01-09T10:18:22.377Z,82.94
2023-01-09T10:19:38.581Z,82.89
2023-01-09T10:20:57.555Z,82.60
2023-01-09T10:22:11.275Z,82.45
2023-01-09T10:23:49.915Z,82.38
2023-01-09T10:25:07.250Z,82.06
2023-01-09T10:26:18.122Z,82.17
2023-01-09T10:27:36.966Z,82.24
2023-01-09T10:29:00.688Z,82.06
2023-01-09T10:30:26.701Z,82.00
2023-01-09T10:31:38.105Z,82.00
2023-01-09T10:32:52.598Z,81.66
2023-01-09T10:34:09.492Z,81.92
2023-01-09T10:35:47.077Z,81.54
2023-01-09T10:37:11.984Z,81.51
2023-01-09T10:38:19.244Z,81.27
2023-01-09T10:39:26.888Z,80.82
2023-01-09T10:40:36.263Z,81.04
2023-01-09T10:41:46.427Z,81.47
2023-01-09T10:42:54.151Z,80.97
2023-01-09T10:44:04.511Z,81.29
2023-01-09T10:45:17.809Z,81.51
2023-01-09T10:46:26.186Z,81.17
2023-01-09T10:47:34.233Z,81.33
2023-01-09T10:48:38.528Z,81.35
2023-01-09T10:49:42.270Z,80.58
2023-01-09T10:50:48.994Z,80.87
2023-01-09T10:51:53.463Z,80.76
2023-01-09T10:52:58.260Z,80.58
2023-01-09T10:54:00.353Z,80.61
2023-01-09T10:55:14.439Z,80.55
2023-01-09T10:56:24.032Z,80.92
2023-01-09T10:57:40.811Z,80.92
2023-01-09T10:58:43.948Z,80.89
2023-01-09T10:59:47.111Z,80.21
2023-01-09T11:00:51.685Z,80.09
2023-01-09T11:01:55.431Z,80.25
2023-01-09T11:02:58.535Z,80.41
2023-01-09T11:04:02.388Z,80.38
2023-01-09T11:05:04.727Z,79.76
2023-01-09T11:06:20.173Z,79.66
2023-01-09T11:07:25.484Z,79.15
2023-01-09T11:08:33.622Z,78.66
2023-01-09T11:09:58.116Z,78.73
2023-01-09T11:11:02.651Z,78.68
2023-01-09T11:12:25.147Z,78.90
2023-01-09T11:13:31.736Z,78.97
2023-01-09T11:14:34.823Z,78.88
2023-01-09T11:15:37.962Z,79.09
2023-01-09T11:16:52.469Z,79.33
2023-01-09T11:17:57.676Z,79.27
2023-01-09T11:19:02.438Z,79.38
2023-01-09T11:20:07.060Z,79.23
2023-01-09T11:21:31.926Z,79.22
2023-01-09T11:22:44.718Z,78.80
2023-01-09T11:23:46.725Z,78.83
2023-01-09T11:25:01.360Z,78.78
2023-01-09T11:26:04.083Z,78.62
2023-01-09T11:27:25.398Z,78.41
2023-01-09T11:28:30.623Z,78.09
2023-01-09T11:29:32.701Z,77.74
2023-01-09T11:30:36.925Z,78.03
2023-01-09T11:31:41.763Z,77.69
2023-01-09T11:32:46.438Z,77.58
2023-01-09T11:33:51.768Z,77.78
2023-01-09T11:34:53.955Z,77.64
2023-01-09T11:36:05.199Z,77.66
2023-01-09T11:37:13.983Z,77.68
2023-01-09T11:38:18.557Z,77.71
2023-01-09T11:39:25.470Z,77.63
2023-01-09T11:40:28.391Z,77.43
2023-01-09T11:41:35.084Z,77.41
2023-01-09T11:42:53.120Z,77.63
2023-01-09T11:43:59.040Z,77.60
2023-01-09T11:45:01.629Z,77.45
2023-01-09T11:46:07.042Z,77.24
2023-01-09T11:47:26.851Z,77.48
2023-01-09T11:48:38.927Z,77.66
2023-01-09T11:49:41.993Z,77.67
2023-01-09T11:50:56.002Z,77.48
2023-01-09T11:52:16.378Z,77.71
2023-01-09T11:53:21.677Z,77.58
2023-01-09T11:54:27.527Z,77.63
2023-01-09T11:55:41.843Z,77.67
2023-01-09T11:56:46.021Z,77.65
2023-01-09T11:57:53.021Z,77.55
2023-01-09T11:58:56.126Z,77.52
2023-01-09T12:00:02.829Z,77.64
2023-01-09T12:01:29.540Z,77.78
2023-01-09T12:02:53.320Z,77.59
2023-01-09T12:04:11.959Z,77.56
2023-01-09T12:05:27.991Z,77.28
2023-01-09T12:06:39.890Z,77.28
2023-01-09T12:08:06.054Z,76.99
2023-01-09T12:09:13.136Z,77.02
2023-01-09T12:10:43.158Z,76.93
2023-01-09T12:11:53.279Z,76.67
2023-01-09T12:13:04.117Z,76.54
2023-01-09T12:14:33.641Z,76.54
2023-01-09T12:15:42.742Z,76.61
2023-01-09T12:17:00.661Z,76.60
2023-01-09T12:18:24.047Z,76.55
2023-01-09T12:19:52.402Z,76.77
2023-01-09T12:21:07.151Z,76.49
2023-01-09T12:22:23.876Z,76.18
2023-01-09T12:23:43.245Z,76.46
2023-01-09T12:25:07.086Z,76.46
2023-01-09T12:26:19.106Z,76.49
2023-01-09T12:27:38.442Z,76.50
2023-01-09T12:29:26.413Z,76.53
2023-01-09T12:30:39.072Z,76.56
2023-01-09T12:32:18.767Z,76.40
2023-01-09T12:33:33.179Z,76.48
2023-01-09T12:34:53.742Z,76.54
2023-01-09T12:36:10.378Z,76.60
2023-01-09T12:37:30.742Z,76.76
2023-01-09T12:38:42.526Z,76.49
2023-01-09T12:39:57.905Z,76.64
2023-01-09T12:41:22.806Z,76.66
2023-01-09T12:42:41.061Z,76.66
2023-01-09T12:43:52.542Z,76.84
2023-01-09T12:45:02.758Z,76.71
2023-01-09T12:46:16.774Z,76.61
2023-01-09T12:47:45.652Z,76.63
2023-01-09T12:49:05.660Z,76.53
2023-01-09T12:50:25.168Z,76.67
2023-01-09T12:51:34.694Z,76.82
2023-01-09T12:52:43.327Z,76.63
2023-01-09T12:53:53.305Z,76.76
2023-01-09T12:55:04.124Z,76.81
2023-01-09T12:56:10.625Z,76.82
2023-01-09T12:57:20.543Z,77.07
2023-01-09T12:58:33.421Z,77.16
2023-01-09T12:59:42.393Z,77.14
2023-01-09T13:00:51.176Z,77.17
2023-01-09T13:01:55.134Z,77.32
2023-01-09T13:03:11.969Z,77.42
2023-01-09T13:04:20.596Z,77.45
2023-01-09T13:05:26.714Z,77.67
2023-01-09T13:06:30.334Z,77.62
2023-01-09T13:07:41.093Z,78.00
2023-01-09T13:08:45.705Z,78.02
2023-01-09T13:09:55.121Z,77.89
2023-01-09T13:11:19.003Z,78.23
2023-01-09T13:12:26.263Z,78.28
2023-01-09T13:13:36.352Z,78.29
2023-01-09T13:14:47.792Z,78.23
2023-01-09T13:15:54.680Z,78.43
2023-01-09T13:16:59.850Z,78.33
2023-01-09T13:18:08.258Z,78.62
2023-01-09T13:19:16.320Z,78.63
2023-01-09T13:20:23.571Z,78.74
2023-01-09T13:21:27.530Z,78.66
2023-01-09T13:22:31.173Z,78.71
2023-01-09T13:23:42.909Z,78.87
2023-01-09T13:25:08.171Z,78.99
2023-01-09T13:26:17.694Z,78.86
2023-01-09T13:27:23.518Z,78.96
2023-01-09T13:28:31.380Z,78.89
2023-01-09T13:29:38.621Z,78.79
2023-01-09T13:30:54.530Z,78.97
2023-01-09T13:32:15.006Z,78.93
2023-01-09T13:33:20.920Z,78.82
2023-01-09T13:34:27.316Z,79.01
2023-01-09T13:35:29.486Z,78.79
2023-01-09T13:36:35.132Z,78.71
2023-01-09T13:37:38.300Z,78.82
2023-01-09T13:38:41.333Z,78.81
2023-01-09T13:39:44.437Z,78.84
2023-01-09T13:40:48.930Z,78.68
2023-01-09T13:42:13.141Z,78.66
2023-01-09T13:43:17.014Z,78.53
2023-01-09T13:44:24.675Z,78.57
2023-01-09T13:45:29.895Z,78.58
2023-01-09T13:46:36.975Z,78.92
2023-01-09T13:47:40.129Z,78.89
2023-01-09T13:48:43.227Z,78.87
2023-01-09T13:50:07.036Z,78.99
2023-01-09T13:51:38.911Z,78.85
2023-01-09T13:52:43.121Z,78.97
2023-01-09T13:53:46.707Z,79.00
2023-01-09T13:55:25.514Z,78.73
2023-01-09T13:56:30.064Z,78.84
2023-01-09T13:57:34.987Z,78.97
2023-01-09T13:59:00.166Z,78.97
2023-01-09T14:00:44.094Z,78.76
2023-01-09T14:01:47.692Z,78.94
2023-01-09T14:02:55.626Z,78.95
2023-01-09T14:04:32.157Z,78.84
2023-01-09T14:06:06.338Z,78.80
2023-01-09T14:07:26.368Z,78.68
2023-01-09T14:08:30.197Z,78.73
2023-01-09T14:09:37.859Z,78.87
2023-01-09T14:10:48.617Z,78.72
2023-01-09T14:12:03.899Z,78.75
2023-01-09T14:13:09.958Z,78.88
2023-01-09T14:14:26.844Z,78.89
2023-01-09T14:15:36.942Z,78.69
2023-01-09T14:16:40.859Z,78.65
2023-01-09T14:17:43.957Z,78.86
2023-01-09T14:18:49.771Z,78.81
2023-01-09T14:19:57.770Z,78.96
2023-01-09T14:21:03.994Z,78.95
2023-01-09T14:22:08.530Z,78.76